Time;durP1;ratioP1;P1;durP2;ratioP2;P2;SDS_P1;SDS_P2;PMS_P1;PMS_P2;Temp;Humidity;BMP_temperature;BMP_pressure;BME280_temperature;BME280_humidity;BME280_pressure;Samples;Min_cycle;Max_cycle;Signal;HPM_P1;HPM_P2
2023/07/04 00:01:38;;;;;;;13.98;12.10;;;;;;;-140.66;100.00;55571.53;5115081;28;20038;-73
2023/07/04 00:04:24;;;;;;;15.60;12.13;;;;;;;-140.66;100.00;55571.53;5115153;28;20023;-73
2023/07/04 00:07:09;;;;;;;17.73;12.00;;;;;;;-140.66;100.00;55571.53;5099302;28;20024;-72
2023/07/04 00:09:55;;;;;;;15.32;11.80;;;;;;;-140.66;100.00;55571.53;5114102;28;20042;-73
2023/07/04 00:12:41;;;;;;;16.40;12.35;;;;;;;-140.66;100.00;55571.53;5114216;28;20333;-72
2023/07/04 00:15:26;;;;;;;15.00;12.20;;;;;;;-140.66;100.00;55571.53;5113639;28;20371;-73
2023/07/04 00:18:13;;;;;;;14.80;12.25;;;;;;;-140.66;100.00;55571.53;5114602;28;20392;-73
2023/07/04 00:21:03;;;;;;;18.10;12.85;;;;;;;-140.66;100.00;55571.53;5099441;28;20482;-72
2023/07/04 00:23:52;;;;;;;13.90;12.02;;;;;;;-140.66;100.00;55571.53;5114371;28;20041;-74
2023/07/04 00:26:38;;;;;;;14.90;11.90;;;;;;;-140.66;100.00;55571.53;5115103;28;20035;-73
2023/07/04 00:29:23;;;;;;;17.67;12.65;;;;;;;-140.66;100.00;55571.53;5120023;28;20035;-73
2023/07/04 00:32:09;;;;;;;15.98;12.05;;;;;;;-140.66;100.00;55571.53;5098735;28;20051;-73
2023/07/04 00:34:55;;;;;;;16.00;12.75;;;;;;;-140.66;100.00;55571.53;5112922;28;20055;-73
2023/07/04 00:37:43;;;;;;;18.15;13.00;;;;;;;-140.66;100.00;55571.53;5113343;28;20028;-73
2023/07/04 00:40:29;;;;;;;18.15;13.77;;;;;;;-140.66;100.00;55571.53;5101249;28;20020;-73
2023/07/04 00:43:15;;;;;;;17.70;13.70;;;;;;;-140.66;100.00;55571.53;5102825;28;20332;-71
2023/07/04 00:46:01;;;;;;;15.00;12.77;;;;;;;-140.66;100.00;55571.53;5117665;28;20047;-73
2023/07/04 00:48:47;;;;;;;15.65;12.63;;;;;;;-140.66;100.00;55571.53;5117511;28;20023;-74
2023/07/04 00:51:34;;;;;;;14.98;12.98;;;;;;;-140.66;100.00;55571.53;5117183;28;20020;-73
2023/07/04 00:54:24;;;;;;;19.90;13.13;;;;;;;-140.66;100.00;55571.53;5116426;28;20027;-74
2023/07/04 00:57:12;;;;;;;22.20;14.30;;;;;;;-140.66;100.00;55571.53;5102655;28;20036;-72
2023/07/04 01:00:10;;;;;;;16.35;13.35;;;;;;;-140.66;100.00;55571.53;5116912;28;20036;-73
2023/07/04 01:03:05;;;;;;;19.70;13.95;;;;;;;-140.66;100.00;55571.53;5101848;28;20471;-73
2023/07/04 01:06:13;;;;;;;18.88;14.23;;;;;;;-140.66;100.00;55571.53;5102193;28;20367;-73
2023/07/04 01:09:04;;;;;;;16.08;13.52;;;;;;;-140.66;100.00;55571.53;5117567;28;20024;-73
2023/07/04 01:11:52;;;;;;;17.40;14.20;;;;;;;-140.66;100.00;55571.53;5117079;28;20022;-73
2023/07/04 01:14:38;;;;;;;17.67;14.93;;;;;;;-140.66;100.00;55571.53;5102147;28;20114;-73
2023/07/04 01:17:26;;;;;;;16.73;12.93;;;;;;;-140.66;100.00;55571.53;5117476;28;20032;-73
2023/07/04 01:20:16;;;;;;;20.88;13.60;;;;;;;-140.66;100.00;55571.53;5116980;28;20479;-73
2023/07/04 01:23:27;;;;;;;14.95;12.38;;;;;;;-140.66;100.00;55571.53;5101926;28;20032;-73
2023/07/04 01:26:35;;;;;;;16.50;12.13;;;;;;;-140.66;100.00;55571.53;5101820;28;20034;-73
2023/07/04 01:29:21;;;;;;;16.10;11.77;;;;;;;-140.66;100.00;55571.53;5101621;28;20051;-73
2023/07/04 01:32:08;;;;;;;13.95;11.48;;;;;;;-140.66;100.00;55571.53;5116817;28;20054;-73
2023/07/04 01:34:58;;;;;;;14.68;10.95;;;;;;;-140.66;100.00;55571.53;5116669;28;20028;-73
2023/07/04 01:37:44;;;;;;;20.08;11.90;;;;;;;-140.66;100.00;55571.53;5116930;28;20159;-72
2023/07/04 01:40:32;;;;;;;14.30;11.85;;;;;;;-140.66;100.00;55571.53;5116112;28;20412;-72
2023/07/04 01:43:17;;;;;;;16.02;12.35;;;;;;;-140.66;100.00;55571.53;5116686;28;20020;-74
2023/07/04 01:46:04;;;;;;;13.88;11.95;;;;;;;-140.66;100.00;55571.53;5116821;28;20051;-72
2023/07/04 01:48:51;;;;;;;13.35;11.05;;;;;;;-140.66;100.00;55571.53;5117485;28;20032;-73
2023/07/04 01:51:39;;;;;;;17.67;11.60;;;;;;;-140.66;100.00;55571.53;5101189;28;20019;-73
2023/07/04 01:54:25;;;;;;;17.02;11.70;;;;;;;-140.66;100.00;55571.53;5116353;28;20031;-73
2023/07/04 01:57:11;;;;;;;15.07;11.20;;;;;;;-140.66;100.00;55571.53;5116284;28;20031;-73
2023/07/04 01:59:57;;;;;;;18.15;12.20;;;;;;;-140.66;100.00;55571.53;5115173;28;20515;-73
2023/07/04 02:02:43;;;;;;;13.27;11.48;;;;;;;-140.66;100.00;55571.53;5115304;28;20024;-73
2023/07/04 02:05:29;;;;;;;15.23;11.30;;;;;;;-140.66;100.00;55571.53;5116585;28;20016;-73
2023/07/04 02:08:15;;;;;;;15.18;11.70;;;;;;;-140.66;100.00;55571.53;5116584;28;20033;-73
2023/07/04 02:11:00;;;;;;;15.07;11.65;;;;;;;-140.66;100.00;55571.53;5101683;28;20028;-73
2023/07/04 02:13:46;;;;;;;14.50;11.73;;;;;;;-140.66;100.00;55571.53;5115849;28;20106;-72
2023/07/04 02:16:32;;;;;;;16.13;11.55;;;;;;;-140.66;100.00;55571.53;5100979;28;20062;-73
2023/07/04 02:19:18;;;;;;;18.70;11.95;;;;;;;-140.66;100.00;55571.53;5115873;28;20472;-73
2023/07/04 02:22:04;;;;;;;15.02;11.00;;;;;;;-140.66;100.00;55571.53;5116122;28;20031;-73
2023/07/04 02:24:50;;;;;;;18.42;11.80;;;;;;;-140.66;100.00;55571.53;5115782;28;20027;-73
2023/07/04 02:27:36;;;;;;;14.48;11.45;;;;;;;-140.66;100.00;55571.53;5100247;28;20027;-73
2023/07/04 02:30:22;;;;;;;15.07;12.40;;;;;;;-140.66;100.00;55571.53;5114889;28;20016;-73
2023/07/04 02:33:08;;;;;;;15.10;11.82;;;;;;;-140.66;100.00;55571.53;5115688;28;20102;-73
2023/07/04 02:35:53;;;;;;;18.15;12.15;;;;;;;-140.66;100.00;55571.53;5115557;28;20060;-73
2023/07/04 02:38:40;;;;;;;14.60;11.90;;;;;;;-140.66;100.00;55571.53;5100847;28;20035;-74
2023/07/04 02:41:26;;;;;;;19.08;12.15;;;;;;;-140.66;100.00;55571.53;5115198;28;20122;-73
2023/07/04 02:44:11;;;;;;;17.10;13.55;;;;;;;-140.66;100.00;55571.53;5101163;28;20027;-73
2023/07/04 02:46:57;;;;;;;16.60;11.35;;;;;;;-140.66;100.00;55571.53;5115707;28;20032;-73
2023/07/04 02:49:43;;;;;;;16.65;12.20;;;;;;;-140.66;100.00;55571.53;5114764;28;20027;-73
2023/07/04 02:52:30;;;;;;;17.98;12.15;;;;;;;-140.66;100.00;55571.53;5114839;28;20016;-73
2023/07/04 02:55:17;;;;;;;20.83;12.85;;;;;;;-140.66;100.00;55571.53;5115071;28;20036;-73
2023/07/04 02:58:03;;;;;;;22.45;12.27;;;;;;;-140.66;100.00;55571.53;5115041;28;20061;-73
2023/07/04 03:00:50;;;;;;;16.75;12.15;;;;;;;-140.66;100.00;55571.53;5114523;28;20031;-73
2023/07/04 03:03:36;;;;;;;24.13;13.35;;;;;;;-140.66;100.00;55571.53;5115369;28;20116;-74
2023/07/04 03:06:21;;;;;;;18.15;13.27;;;;;;;-140.66;100.00;55571.53;5115132;28;20028;-72
2023/07/04 03:09:07;;;;;;;18.17;12.73;;;;;;;-140.66;100.00;55571.53;5115401;28;20027;-73
2023/07/04 03:11:54;;;;;;;21.20;12.60;;;;;;;-140.66;100.00;55571.53;5115156;28;20103;-73
2023/07/04 03:14:40;;;;;;;16.75;12.32;;;;;;;-140.66;100.00;55571.53;5115267;28;20448;-73
2023/07/04 03:17:26;;;;;;;19.10;13.00;;;;;;;-140.66;100.00;55571.53;5114139;28;20515;-73
2023/07/04 03:20:12;;;;;;;18.08;13.02;;;;;;;-140.66;100.00;55571.53;5099232;28;20490;-74
2023/07/04 03:22:59;;;;;;;15.73;12.35;;;;;;;-140.66;100.00;55571.53;5099866;28;20070;-73
2023/07/04 03:25:45;;;;;;;18.15;13.05;;;;;;;-140.66;100.00;55571.53;5099376;28;20031;-73
2023/07/04 03:28:30;;;;;;;22.83;14.20;;;;;;;-140.66;100.00;55571.53;5115195;28;20439;-73
2023/07/04 03:31:16;;;;;;;18.95;12.88;;;;;;;-140.66;100.00;55571.53;5099217;28;20106;-73
2023/07/04 03:34:02;;;;;;;20.00;13.52;;;;;;;-140.66;100.00;55571.53;5114491;28;20101;-74
2023/07/04 03:36:47;;;;;;;17.42;14.35;;;;;;;-140.66;100.00;55571.53;5115102;28;20061;-74
2023/07/04 03:39:33;;;;;;;28.00;14.27;;;;;;;-140.66;100.00;55571.53;5099364;28;20028;-73
2023/07/04 03:42:19;;;;;;;21.00;15.02;;;;;;;-140.66;100.00;55571.53;5114345;28;20055;-73
2023/07/04 03:45:07;;;;;;;22.95;14.07;;;;;;;-140.66;100.00;55571.53;5114680;28;20371;-72
2023/07/04 03:47:52;;;;;;;20.38;14.63;;;;;;;-140.66;100.00;55571.53;5114516;28;20432;-71
2023/07/04 03:50:39;;;;;;;17.42;14.90;;;;;;;-140.66;100.00;55571.53;5119369;28;20014;-72
2023/07/04 03:53:24;;;;;;;20.25;14.95;;;;;;;-140.66;100.00;55571.53;5117690;28;20059;-73
2023/07/04 03:56:11;;;;;;;24.52;14.65;;;;;;;-140.66;100.00;55571.53;5114671;28;20024;-72
2023/07/04 03:58:57;;;;;;;20.33;14.48;;;;;;;-140.66;100.00;55571.53;5113885;28;20027;-73
2023/07/04 04:01:45;;;;;;;22.63;15.25;;;;;;;-140.66;100.00;55571.53;5114684;28;20032;-73
2023/07/04 04:04:36;;;;;;;21.05;14.93;;;;;;;-140.66;100.00;55571.53;5099787;28;20474;-73
2023/07/04 04:07:23;;;;;;;24.05;14.05;;;;;;;-140.66;100.00;55571.53;5101373;28;20027;-74
2023/07/04 04:10:09;;;;;;;23.65;15.00;;;;;;;-140.66;100.00;55571.53;5109501;28;20023;-73
2023/07/04 04:12:55;;;;;;;20.50;16.40;;;;;;;-140.66;100.00;55571.53;5121467;28;20100;-73
2023/07/04 04:15:40;;;;;;;23.88;15.38;;;;;;;-140.66;100.00;55571.53;5102734;28;20340;-73
2023/07/04 04:18:26;;;;;;;21.40;16.05;;;;;;;-140.66;100.00;55571.53;5118265;28;20355;-73
2023/07/04 04:21:12;;;;;;;23.02;15.65;;;;;;;-140.66;100.00;55571.53;5117351;28;20341;-73
2023/07/04 04:23:58;;;;;;;25.63;16.77;;;;;;;-140.66;100.00;55571.53;5118281;28;20093;-73
2023/07/04 04:26:46;;;;;;;19.50;15.13;;;;;;;-140.66;100.00;55571.53;5117978;28;20035;-73
2023/07/04 04:29:32;;;;;;;24.13;16.65;;;;;;;-140.66;100.00;55571.53;5117351;28;20038;-72
2023/07/04 04:32:18;;;;;;;24.50;17.88;;;;;;;-140.66;100.00;55571.53;5117285;28;20055;-74
2023/07/04 04:35:05;;;;;;;22.10;16.17;;;;;;;-140.66;100.00;55571.53;5118019;28;20024;-73
2023/07/04 04:37:50;;;;;;;30.05;16.88;;;;;;;-140.66;100.00;55571.53;5117456;28;20028;-73
2023/07/04 04:40:37;;;;;;;21.38;15.18;;;;;;;-140.66;100.00;55571.53;5103550;28;20448;-72
2023/07/04 04:43:22;;;;;;;18.67;15.02;;;;;;;-140.66;100.00;55571.53;5116226;28;20397;-73
2023/07/04 04:46:08;;;;;;;25.27;15.65;;;;;;;-140.66;100.00;55571.53;5102580;28;20090;-73
2023/07/04 04:48:54;;;;;;;22.35;16.55;;;;;;;-140.66;100.00;55571.53;5117460;28;20023;-73
2023/07/04 04:51:40;;;;;;;23.90;17.27;;;;;;;-140.66;100.00;55571.53;5117688;28;20088;-73
2023/07/04 04:54:26;;;;;;;18.83;15.68;;;;;;;-140.66;100.00;55571.53;5116361;28;20039;-73
2023/07/04 04:57:12;;;;;;;24.50;16.65;;;;;;;-140.66;100.00;55571.53;5117515;28;20112;-73
2023/07/04 04:59:59;;;;;;;20.23;16.63;;;;;;;-140.66;100.00;55571.53;5116663;28;20133;-72
2023/07/04 05:02:45;;;;;;;22.33;16.80;;;;;;;-140.66;100.00;55571.53;5117513;28;20039;-73
2023/07/04 05:05:31;;;;;;;18.08;14.45;;;;;;;-140.66;100.00;55571.53;5116918;28;20032;-73
2023/07/04 05:08:16;;;;;;;20.95;17.27;;;;;;;-140.66;100.00;55571.53;5117357;28;20114;-72
2023/07/04 05:11:06;;;;;;;23.25;17.10;;;;;;;-140.66;100.00;55571.53;5117693;28;20032;-73
2023/07/04 05:13:52;;;;;;;22.42;17.15;;;;;;;-140.66;100.00;55571.53;5116428;28;20375;-73
2023/07/04 05:16:37;;;;;;;25.60;17.63;;;;;;;-140.66;100.00;55571.53;5101918;28;20020;-73
2023/07/04 05:19:23;;;;;;;21.13;17.25;;;;;;;-140.66;100.00;55571.53;5117323;28;20062;-72
2023/07/04 05:22:09;;;;;;;24.70;16.88;;;;;;;-140.66;100.00;55571.53;5117225;28;20062;-73
2023/07/04 05:24:56;;;;;;;23.27;16.27;;;;;;;-140.66;100.00;55571.53;5116668;28;20027;-72
2023/07/04 05:27:42;;;;;;;22.70;16.65;;;;;;;-140.66;100.00;55571.53;5116738;28;20470;-72
2023/07/04 05:30:28;;;;;;;21.88;16.45;;;;;;;-140.66;100.00;55571.53;5115975;28;20028;-73
2023/07/04 05:33:14;;;;;;;22.20;17.02;;;;;;;-140.66;100.00;55571.53;5117039;28;20102;-72
2023/07/04 05:36:14;;;;;;;23.33;16.83;;;;;;;-140.66;100.00;55571.53;5116684;28;20043;-72
2023/07/04 05:39:02;;;;;;;22.67;16.20;;;;;;;-140.66;100.00;55571.53;5116456;28;20066;-72
2023/07/04 05:41:48;;;;;;;22.52;18.00;;;;;;;-140.66;100.00;55571.53;5116918;28;20092;-72
2023/07/04 05:44:34;;;;;;;21.27;15.85;;;;;;;-140.66;100.00;55571.53;5116077;28;20128;-72
2023/07/04 05:47:19;;;;;;;22.23;15.43;;;;;;;-140.66;100.00;55571.53;5116464;28;20310;-72
2023/07/04 05:50:06;;;;;;;22.02;15.25;;;;;;;-140.66;100.00;55571.53;5116492;28;20496;-72
2023/07/04 05:52:51;;;;;;;25.67;15.32;;;;;;;-140.66;100.00;55571.53;5115091;28;20106;-72
2023/07/04 05:55:37;;;;;;;27.85;16.10;;;;;;;-140.66;100.00;55571.53;5115460;28;20053;-73
2023/07/04 05:58:23;;;;;;;21.73;15.90;;;;;;;-140.66;100.00;55571.53;5115569;28;20038;-73
2023/07/04 06:01:37;;;;;;;20.63;15.20;;;;;;;-140.66;100.00;55571.53;5116215;28;20034;-73
2023/07/04 06:04:23;;;;;;;22.60;14.70;;;;;;;-140.66;100.00;55571.53;5135217;28;20011;-74
2023/07/04 06:07:09;;;;;;;20.63;15.50;;;;;;;-140.66;100.00;55571.53;5119821;28;20039;-73
2023/07/04 06:09:54;;;;;;;24.50;16.02;;;;;;;-140.66;100.00;55571.53;5116050;28;20024;-73
2023/07/04 06:12:41;;;;;;;24.25;15.07;;;;;;;-140.66;100.00;55571.53;5115083;28;20107;-75
2023/07/04 06:15:27;;;;;;;22.33;15.32;;;;;;;-140.66;100.00;55571.53;5115897;28;20023;-73
2023/07/04 06:18:13;;;;;;;24.48;15.85;;;;;;;-140.66;100.00;55571.53;5114801;28;20197;-72
2023/07/04 06:21:10;;;;;;;28.98;15.70;;;;;;;-140.66;100.00;55571.53;5115390;28;20050;-72
2023/07/04 06:23:57;;;;;;;32.75;16.20;;;;;;;-140.66;100.00;55571.53;5135326;28;20043;-74
2023/07/04 06:26:43;;;;;;;30.40;16.45;;;;;;;-140.66;100.00;55571.53;5116278;28;20055;-73
2023/07/04 06:29:29;;;;;;;25.15;16.33;;;;;;;-140.66;100.00;55571.53;5101187;28;20020;-72
2023/07/04 06:32:14;;;;;;;28.02;15.05;;;;;;;-140.66;100.00;55571.53;5115329;28;20111;-72
2023/07/04 06:35:00;;;;;;;21.75;14.82;;;;;;;-140.66;100.00;55571.53;5114355;28;20032;-71
2023/07/04 06:37:46;;;;;;;21.92;15.05;;;;;;;-140.66;100.00;55571.53;5114958;28;20402;-72
2023/07/04 06:40:32;;;;;;;22.15;13.27;;;;;;;-140.66;100.00;55571.53;5115202;28;20055;-72
2023/07/04 06:43:18;;;;;;;25.23;14.80;;;;;;;-140.66;100.00;55571.53;5115373;28;20482;-71
2023/07/04 06:46:04;;;;;;;24.25;15.45;;;;;;;-140.66;100.00;55571.53;5100052;28;20459;-73
2023/07/04 06:48:51;;;;;;;20.30;14.95;;;;;;;-140.66;100.00;55571.53;5115124;28;20108;-71
2023/07/04 06:51:36;;;;;;;20.88;14.23;;;;;;;-140.66;100.00;55571.53;5115014;28;20030;-72
2023/07/04 06:54:23;;;;;;;23.20;15.57;;;;;;;-140.66;100.00;55571.53;5114464;28;20031;-72
2023/07/04 06:57:08;;;;;;;21.65;15.45;;;;;;;-140.66;100.00;55571.53;5113963;28;20030;-72
2023/07/04 06:59:55;;;;;;;21.42;14.90;;;;;;;-140.66;100.00;55571.53;5113798;28;20020;-72
2023/07/04 07:02:40;;;;;;;22.60;14.38;;;;;;;-140.66;100.00;55571.53;5113668;28;20024;-72
2023/07/04 07:05:26;;;;;;;17.08;13.90;;;;;;;-140.66;100.00;55571.53;5113885;28;20028;-71
2023/07/04 07:08:16;;;;;;;25.13;16.20;;;;;;;-140.66;100.00;55571.53;5113892;28;20066;-72
2023/07/04 07:11:05;;;;;;;23.98;15.55;;;;;;;-140.66;100.00;55571.53;5113335;28;20032;-71
2023/07/04 07:13:51;;;;;;;22.40;15.82;;;;;;;-140.66;100.00;55571.53;5098727;28;20023;-72
2023/07/04 07:16:37;;;;;;;21.20;15.32;;;;;;;-140.66;100.00;55571.53;5113510;28;20069;-71
2023/07/04 07:19:23;;;;;;;26.55;16.77;;;;;;;-140.66;100.00;55571.53;5100338;28;20368;-71
2023/07/04 07:22:09;;;;;;;22.58;16.42;;;;;;;-140.66;100.00;55571.53;5098616;28;20490;-71
2023/07/04 07:24:54;;;;;;;27.70;17.63;;;;;;;-140.66;100.00;55571.53;5113839;28;20028;-72
2023/07/04 07:27:40;;;;;;;27.85;17.40;;;;;;;-140.66;100.00;55571.53;5113630;28;20045;-71
2023/07/04 07:30:26;;;;;;;23.33;16.83;;;;;;;-140.66;100.00;55571.53;5114114;28;20443;-71
2023/07/04 07:33:12;;;;;;;23.35;16.75;;;;;;;-140.66;100.00;55571.53;5114096;28;20371;-72
2023/07/04 07:35:59;;;;;;;21.00;16.77;;;;;;;-140.66;100.00;55571.53;5113881;28;20136;-71
2023/07/04 07:38:46;;;;;;;20.95;16.35;;;;;;;-140.66;100.00;55571.53;5114909;28;20028;-71
2023/07/04 07:41:37;;;;;;;20.73;17.48;;;;;;;-140.66;100.00;55571.53;5114468;28;20023;-72
2023/07/04 07:44:23;;;;;;;25.45;17.13;;;;;;;-140.66;100.00;55571.53;5115066;28;20043;-71
2023/07/04 07:47:10;;;;;;;22.25;16.92;;;;;;;-140.66;100.00;55571.53;5098965;28;20027;-72
2023/07/04 07:49:55;;;;;;;25.00;17.60;;;;;;;-140.66;100.00;55571.53;5115202;28;20039;-72
2023/07/04 07:52:41;;;;;;;23.38;16.13;;;;;;;-140.66;100.00;55571.53;5117223;28;20023;-72
2023/07/04 07:55:27;;;;;;;22.63;16.08;;;;;;;-140.66;100.00;55571.53;5102718;28;20039;-71
2023/07/04 07:58:13;;;;;;;23.15;16.63;;;;;;;-140.66;100.00;55571.53;5117264;28;20031;-72
2023/07/04 08:00:59;;;;;;;20.48;16.30;;;;;;;-140.66;100.00;55571.53;5118341;28;20047;-72
2023/07/04 08:03:45;;;;;;;20.85;15.80;;;;;;;-140.66;100.00;55571.53;5102778;28;20487;-74
2023/07/04 08:06:35;;;;;;;21.83;16.70;;;;;;;-140.66;100.00;55571.53;5119165;28;20024;-75
2023/07/04 08:09:21;;;;;;;21.08;15.27;;;;;;;-140.66;100.00;55571.53;5103232;28;20478;-73
2023/07/04 08:12:08;;;;;;;16.98;14.98;;;;;;;-140.66;100.00;55571.53;5103675;28;20035;-73
2023/07/04 08:14:54;;;;;;;19.58;15.30;;;;;;;-140.66;100.00;55571.53;5118638;28;20032;-74
2023/07/04 08:17:40;;;;;;;19.17;15.20;;;;;;;-140.66;100.00;55571.53;5102083;28;20463;-73
2023/07/04 08:20:25;;;;;;;21.65;14.15;;;;;;;-140.66;100.00;55571.53;5117824;28;20059;-73
2023/07/04 08:23:11;;;;;;;24.23;14.52;;;;;;;-140.66;100.00;55571.53;5102698;28;20036;-75
2023/07/04 08:25:57;;;;;;;21.60;14.75;;;;;;;-140.66;100.00;55571.53;5117237;28;20023;-74
2023/07/04 08:28:43;;;;;;;23.30;15.02;;;;;;;-140.66;100.00;55571.53;5117574;28;20114;-74
2023/07/04 08:31:29;;;;;;;19.35;14.77;;;;;;;-140.66;100.00;55571.53;5118095;28;20059;-73
2023/07/04 08:34:14;;;;;;;24.23;14.00;;;;;;;-140.66;100.00;55571.53;5102143;28;20451;-73
2023/07/04 08:37:00;;;;;;;15.15;13.40;;;;;;;-140.66;100.00;55571.53;5103508;28;20427;-76
2023/07/04 08:39:46;;;;;;;23.10;14.27;;;;;;;-140.66;100.00;55571.53;5112293;28;20111;-75
2023/07/04 08:42:35;;;;;;;19.55;13.63;;;;;;;-140.66;100.00;55571.53;5112426;27;20038;-77
2023/07/04 08:45:28;;;;;;;18.88;12.95;;;;;;;-140.66;100.00;55571.53;5083377;28;20024;-76
2023/07/04 08:48:17;;;;;;;16.98;12.18;;;;;;;-140.66;100.00;55571.53;5110328;28;20452;-75
2023/07/04 08:51:03;;;;;;;19.42;12.48;;;;;;;-140.66;100.00;55571.53;5117341;28;20030;-76
2023/07/04 08:53:56;;;;;;;18.20;12.93;;;;;;;-140.66;100.00;55571.53;5117367;28;20088;-73
2023/07/04 08:56:42;;;;;;;16.33;11.60;;;;;;;-140.66;100.00;55571.53;5117789;28;20367;-76
2023/07/04 08:59:42;;;;;;;15.43;11.57;;;;;;;-140.66;100.00;55571.53;5104406;28;20023;-76
2023/07/04 09:02:49;;;;;;;17.73;11.23;;;;;;;-140.66;100.00;55571.53;5128917;28;20028;-75
2023/07/04 09:06:13;;;;;;;16.48;11.70;;;;;;;-140.66;100.00;55571.53;5094251;28;20411;-76
2023/07/04 09:09:17;;;;;;;16.50;11.07;;;;;;;-140.66;100.00;55571.53;5078124;28;20071;-76
2023/07/04 09:12:04;;;;;;;12.52;10.25;;;;;;;-140.66;100.00;55571.53;5097682;28;20020;-75
2023/07/04 09:14:59;;;;;;;17.08;10.70;;;;;;;-140.66;100.00;55571.53;5097531;28;20031;-76
2023/07/04 09:17:57;;;;;;;12.95;10.05;;;;;;;-140.66;100.00;55571.53;5097125;28;20028;-74
2023/07/04 09:20:47;;;;;;;17.00;10.02;;;;;;;-140.66;100.00;55571.53;5096510;28;20143;-76
2023/07/04 09:23:33;;;;;;;10.70;9.25;;;;;;;-140.66;100.00;55571.53;5097152;28;20101;-74
2023/07/04 09:26:26;;;;;;;21.85;10.57;;;;;;;-140.66;100.00;55571.53;5095198;28;20114;-75
2023/07/04 09:29:17;;;;;;;19.75;10.13;;;;;;;-140.66;100.00;55571.53;5096719;28;20024;-74
2023/07/04 09:32:04;;;;;;;12.63;9.80;;;;;;;-140.66;100.00;55571.53;5098753;28;20501;-75
2023/07/04 09:34:55;;;;;;;14.77;9.75;;;;;;;-140.66;100.00;55571.53;5113531;28;20009;-75
2023/07/04 09:37:59;;;;;;;22.45;10.35;;;;;;;-140.66;100.00;55571.53;5117308;28;20023;-75
2023/07/04 09:40:54;;;;;;;14.88;9.57;;;;;;;-140.66;100.00;55571.53;5116699;28;20047;-75
2023/07/04 09:43:41;;;;;;;13.75;8.68;;;;;;;-140.66;100.00;55571.53;5117745;28;20376;-75
2023/07/04 09:46:29;;;;;;;14.07;8.80;;;;;;;-140.66;100.00;55571.53;5116616;28;20080;-74
2023/07/04 09:49:31;;;;;;;10.45;8.63;;;;;;;-140.66;100.00;55571.53;5116701;28;20059;-76
2023/07/04 09:52:17;;;;;;;10.82;9.23;;;;;;;-140.66;100.00;55571.53;5116237;28;20023;-74
2023/07/04 09:55:06;;;;;;;10.07;9.07;;;;;;;-140.66;100.00;55571.53;5116354;28;20377;-74
2023/07/04 09:57:52;;;;;;;13.00;7.85;;;;;;;-140.66;100.00;55571.53;5101003;28;20032;-76
2023/07/04 10:00:38;;;;;;;13.13;8.43;;;;;;;-140.66;100.00;55571.53;5116006;28;20364;-74
2023/07/04 10:03:25;;;;;;;12.27;8.50;;;;;;;-140.66;100.00;55571.53;5100456;28;20452;-75
2023/07/04 10:06:12;;;;;;;10.43;8.60;;;;;;;-140.66;100.00;55571.53;5115100;28;20031;-75
2023/07/04 10:08:58;;;;;;;10.77;8.57;;;;;;;-140.66;100.00;55571.53;5115912;28;20023;-76
2023/07/04 10:11:45;;;;;;;9.40;8.23;;;;;;;-140.66;100.00;55571.53;5101396;28;20023;-75
2023/07/04 10:14:36;;;;;;;10.55;8.40;;;;;;;-140.66;100.00;55571.53;5115904;28;20452;-74
2023/07/04 10:17:27;;;;;;;11.05;8.40;;;;;;;-140.66;100.00;55571.53;5116433;28;20119;-75
2023/07/04 10:20:14;;;;;;;9.05;8.10;;;;;;;-140.66;100.00;55571.53;5117582;28;20044;-74
2023/07/04 10:22:59;;;;;;;11.70;8.30;;;;;;;-140.66;100.00;55571.53;5114605;28;20031;-74
2023/07/04 10:25:48;;;;;;;9.63;8.32;;;;;;;-140.66;100.00;55571.53;5115420;28;20047;-76
2023/07/04 10:28:34;;;;;;;10.80;8.38;;;;;;;-140.66;100.00;55571.53;5115779;28;20085;-76
2023/07/04 10:31:24;;;;;;;9.10;8.20;;;;;;;-140.66;100.00;55571.53;5114728;28;20056;-76
2023/07/04 10:34:14;;;;;;;15.20;8.77;;;;;;;-140.66;100.00;55571.53;5115254;28;20020;-73
2023/07/04 10:37:01;;;;;;;12.88;8.95;;;;;;;-140.66;100.00;55571.53;5100884;28;20062;-76
2023/07/04 10:39:48;;;;;;;13.88;9.05;;;;;;;-140.66;100.00;55571.53;5115366;28;20038;-74
2023/07/04 10:42:54;;;;;;;12.25;9.07;;;;;;;-140.66;100.00;55571.53;5081278;28;20054;-73
2023/07/04 10:45:46;;;;;;;12.25;8.88;;;;;;;-140.66;100.00;55571.53;5078049;28;20442;-74
2023/07/04 10:48:33;;;;;;;12.63;7.93;;;;;;;-140.66;100.00;55571.53;5095390;28;20064;-75
2023/07/04 10:51:26;;;;;;;12.55;8.40;;;;;;;-140.66;100.00;55571.53;5080758;28;20024;-75
2023/07/04 10:54:13;;;;;;;12.05;8.98;;;;;;;-140.66;100.00;55571.53;5099475;28;20023;-73
2023/07/04 10:57:08;;;;;;;14.15;8.43;;;;;;;-140.66;100.00;55571.53;5100065;28;20370;-74
2023/07/04 10:59:59;;;;;;;12.77;8.57;;;;;;;-140.66;100.00;55571.53;5115121;28;20500;-74
2023/07/04 11:02:51;;;;;;;10.45;8.20;;;;;;;-140.66;100.00;55571.53;5113992;28;20468;-74
2023/07/04 11:05:45;;;;;;;13.55;8.82;;;;;;;-140.66;100.00;55571.53;5104140;28;20104;-76
2023/07/04 11:08:33;;;;;;;11.57;8.45;;;;;;;-140.66;100.00;55571.53;5103997;28;20066;-74
2023/07/04 11:11:26;;;;;;;12.50;8.77;;;;;;;-140.66;100.00;55571.53;5094309;28;20463;-74
2023/07/04 11:14:27;;;;;;;10.02;8.93;;;;;;;-140.66;100.00;55571.53;5094905;28;20372;-75
2023/07/04 11:17:20;;;;;;;11.90;8.25;;;;;;;-140.66;100.00;55571.53;5094427;28;20028;-76
2023/07/04 11:20:13;;;;;;;11.00;8.40;;;;;;;-140.66;100.00;55571.53;5095511;28;20460;-77
2023/07/04 11:23:00;;;;;;;18.30;16.38;;;;;;;-140.66;100.00;55571.53;5080493;28;20054;-77
2023/07/04 11:25:49;;;;;;;11.73;8.35;;;;;;;-140.66;100.00;55571.53;5112070;28;20046;-77
2023/07/04 11:28:34;;;;;;;17.05;9.90;;;;;;;-140.66;100.00;55571.53;5114263;28;20028;-77
2023/07/04 11:31:27;;;;;;;12.57;9.18;;;;;;;-140.66;100.00;55571.53;5113727;28;20031;-80
2023/07/04 11:34:13;;;;;;;10.07;8.40;;;;;;;-140.66;100.00;55571.53;5114734;28;20054;-81
2023/07/04 11:36:59;;;;;;;12.10;9.15;;;;;;;-140.66;100.00;55571.53;5113467;28;20107;-80
2023/07/04 11:39:49;;;;;;;11.60;8.27;;;;;;;-140.66;100.00;55571.53;5113916;28;20033;-81
2023/07/04 11:42:44;;;;;;;9.90;7.80;;;;;;;-140.66;100.00;55571.53;5115257;28;20035;-83
2023/07/04 11:45:31;;;;;;;15.15;8.63;;;;;;;-140.66;100.00;55571.53;5099163;28;20344;-81
2023/07/04 11:48:18;;;;;;;21.27;8.30;;;;;;;-140.66;100.00;55571.53;5099070;28;20092;-81
2023/07/04 11:51:06;;;;;;;11.82;8.18;;;;;;;-140.66;100.00;55571.53;5116200;28;20034;-83
2023/07/04 11:54:01;;;;;;;10.02;7.22;;;;;;;-140.66;100.00;55571.53;5134118;28;20367;-83
2023/07/04 11:56:46;;;;;;;11.63;8.88;;;;;;;-140.66;100.00;55571.53;5128148;28;20031;-82
2023/07/04 11:59:42;;;;;;;9.00;7.65;;;;;;;-140.66;100.00;55571.53;5114406;28;20356;-82
2023/07/04 12:02:30;;;;;;;11.02;8.13;;;;;;;-140.66;100.00;55571.53;5114059;28;20454;-82
2023/07/04 12:05:32;;;;;;;10.52;8.10;;;;;;;-140.66;100.00;55571.53;5099901;28;20036;-82
2023/07/04 12:08:40;;;;;;;14.77;8.57;;;;;;;-140.66;100.00;55571.53;5115211;28;20039;-81
2023/07/04 12:11:44;;;;;;;10.82;8.05;;;;;;;-140.66;100.00;55571.53;5115552;28;20028;-81
2023/07/04 12:14:34;;;;;;;8.95;8.05;;;;;;;-140.66;100.00;55571.53;5115605;28;20118;-81
2023/07/04 12:17:22;;;;;;;9.35;8.20;;;;;;;-140.66;100.00;55571.53;5099502;28;20396;-80
2023/07/04 12:20:20;;;;;;;10.43;7.80;;;;;;;-140.66;100.00;55571.53;5114131;28;20387;-82
2023/07/04 12:23:09;;;;;;;10.98;8.20;;;;;;;-140.66;100.00;55571.53;5099361;28;20027;-82
2023/07/04 12:25:59;;;;;;;9.93;8.05;;;;;;;-140.66;100.00;55571.53;5100010;28;20111;-79
2023/07/04 12:28:46;;;;;;;11.02;8.30;;;;;;;-140.66;100.00;55571.53;5099464;28;20059;-79
2023/07/04 12:31:32;;;;;;;10.48;7.90;;;;;;;-140.66;100.00;55571.53;5107796;28;20436;-79